createdAt,value
2018-02-04T00:01:12.323Z,-0.70
2018-02-04T00:03:41.413Z,-0.90
2018-02-04T00:06:10.496Z,-0.90
2018-02-04T00:08:39.635Z,-0.80
2018-02-04T00:11:08.681Z,-0.80
2018-02-04T00:13:37.025Z,-0.80
2018-02-04T00:16:05.332Z,-0.80
2018-02-04T00:18:33.680Z,-0.80
2018-02-04T00:21:01.986Z,-0.90
2018-02-04T00:23:30.329Z,-0.90
2018-02-04T00:25:58.671Z,-0.90
2018-02-04T00:28:27.767Z,-1.30
2018-02-04T00:30:56.848Z,-1.30
2018-02-04T00:33:25.968Z,-1.30
2018-02-04T00:35:54.288Z,-1.30
2018-02-04T00:38:22.619Z,-1.20
2018-02-04T00:40:51.691Z,-1.00
2018-02-04T00:43:20.028Z,-1.00
2018-02-04T00:45:49.121Z,-1.20
2018-02-04T00:48:18.244Z,-1.20
2018-02-04T00:50:46.565Z,-1.20
2018-02-04T00:53:15.643Z,-1.40
2018-02-04T00:55:43.975Z,-1.40
2018-02-04T00:58:12.292Z,-1.30
2018-02-04T01:00:40.638Z,-1.30
2018-02-04T01:03:08.948Z,-1.30
2018-02-04T01:05:37.302Z,-1.20
2018-02-04T01:08:05.616Z,-1.30
2018-02-04T01:10:33.957Z,-1.40
2018-02-04T01:13:02.268Z,-1.30
2018-02-04T01:15:30.612Z,-1.30
2018-02-04T01:17:58.920Z,-1.50
2018-02-04T01:20:27.247Z,-1.40
2018-02-04T01:22:55.573Z,-1.30
2018-02-04T01:25:23.908Z,-1.30
2018-02-04T01:27:52.211Z,-1.20
2018-02-04T01:30:20.550Z,-1.20
2018-02-04T01:32:48.863Z,-1.20
2018-02-04T01:35:17.203Z,-1.20
2018-02-04T01:37:45.520Z,-1.30
2018-02-04T01:40:13.835Z,-1.40
2018-02-04T01:42:42.176Z,-1.40
2018-02-04T01:45:10.504Z,-1.40
2018-02-04T01:47:38.845Z,-1.40
2018-02-04T01:50:07.155Z,-1.40
2018-02-04T01:52:36.255Z,-1.50
2018-02-04T01:55:05.333Z,-1.40
2018-02-04T01:57:33.668Z,-1.50
2018-02-04T02:00:01.984Z,-1.50
2018-02-04T02:02:30.338Z,-1.50
2018-02-04T02:04:58.645Z,-1.60
2018-02-04T02:07:26.975Z,-1.50
2018-02-04T02:09:55.295Z,-1.50
2018-02-04T02:12:23.644Z,-1.60
2018-02-04T02:14:51.955Z,-1.60
2018-02-04T02:17:20.321Z,-1.70
2018-02-04T02:19:48.633Z,-1.70
2018-02-04T02:22:17.716Z,-1.60
2018-02-04T02:24:46.046Z,-1.60
2018-02-04T02:27:14.360Z,-1.60
2018-02-04T02:29:42.697Z,-1.60
2018-02-04T02:32:11.023Z,-1.60
2018-02-04T02:34:39.370Z,-1.60
2018-02-04T02:37:07.679Z,-1.60
2018-02-04T02:39:36.006Z,-1.60
2018-02-04T02:42:04.324Z,-1.60
2018-02-04T02:44:32.660Z,-1.70
2018-02-04T02:47:00.980Z,-1.70
2018-02-04T02:49:29.316Z,-1.60
2018-02-04T02:51:57.643Z,-1.60
2018-02-04T02:54:25.980Z,-1.60
2018-02-04T02:56:55.055Z,-1.70
2018-02-04T02:59:23.395Z,-1.70
2018-02-04T03:01:51.772Z,-1.60
2018-02-04T03:04:20.131Z,-1.60
2018-02-04T03:06:48.439Z,-1.60
2018-02-04T03:09:16.780Z,-1.60
2018-02-04T03:11:45.097Z,-1.50
2018-02-04T03:14:13.440Z,-1.50
2018-02-04T03:16:41.757Z,-1.60
2018-02-04T03:19:10.060Z,-1.50
2018-02-04T03:21:39.160Z,-1.50
2018-02-04T03:24:08.236Z,-1.50
2018-02-04T03:26:36.612Z,-1.50
2018-02-04T03:29:04.952Z,-1.50
2018-02-04T03:31:33.280Z,-1.40
2018-02-04T03:34:02.352Z,-1.40
2018-02-04T03:36:30.693Z,-1.40
2018-02-04T03:38:59.011Z,-1.30
2018-02-04T03:41:27.341Z,-1.30
2018-02-04T03:43:55.660Z,-1.40
2018-02-04T03:46:23.996Z,-1.40
2018-02-04T03:48:52.312Z,-1.40
2018-02-04T03:51:20.649Z,-1.40
2018-02-04T03:53:48.965Z,-1.50
2018-02-04T03:56:17.305Z,-1.50
2018-02-04T03:58:45.620Z,-1.50
2018-02-04T04:01:13.986Z,-1.50
2018-02-04T04:03:43.081Z,-1.50
2018-02-04T04:06:14.480Z,-1.50
2018-02-04T04:08:43.585Z,-1.50
2018-02-04T04:11:12.667Z,-1.40
2018-02-04T04:13:41.797Z,-1.50
2018-02-04T04:16:10.119Z,-1.50
2018-02-04T04:18:38.463Z,-1.40
2018-02-04T04:21:06.776Z,-1.40
2018-02-04T04:23:35.116Z,-1.40
2018-02-04T04:26:03.429Z,-1.30
2018-02-04T04:28:31.763Z,-1.30
2018-02-04T04:31:00.082Z,-1.20
2018-02-04T04:33:28.425Z,-1.20
2018-02-04T04:35:56.741Z,-1.20
2018-02-04T04:38:25.081Z,-1.10
2018-02-04T04:40:53.396Z,-1.10
2018-02-04T04:43:21.735Z,-1.10
2018-02-04T04:45:50.804Z,-1.10
2018-02-04T04:48:21.140Z,-1.10
2018-02-04T04:50:50.225Z,-1.00
2018-02-04T04:53:18.560Z,-1.00
2018-02-04T04:55:46.884Z,-1.00
2018-02-04T04:58:15.225Z,-1.00
2018-02-04T05:00:43.533Z,-0.90
2018-02-04T05:03:11.853Z,-0.90
2018-02-04T05:05:40.193Z,-0.90
2018-02-04T05:08:08.508Z,-0.90
2018-02-04T05:10:36.850Z,-0.90
2018-02-04T05:13:05.153Z,-0.80
2018-02-04T05:15:34.261Z,-0.80
2018-02-04T05:18:21.770Z,-0.80
2018-02-04T05:20:50.120Z,-0.80
2018-02-04T05:23:18.435Z,-0.80
2018-02-04T05:25:47.539Z,-0.80
2018-02-04T05:28:15.848Z,-0.80
2018-02-04T05:30:44.190Z,-0.80
2018-02-04T05:33:13.275Z,-0.70
2018-02-04T05:35:42.372Z,-0.70
2018-02-04T05:38:11.460Z,-0.60
2018-02-04T05:40:39.815Z,-0.70
2018-02-04T05:43:08.132Z,-0.70
2018-02-04T05:45:36.484Z,-0.60
2018-02-04T05:48:04.800Z,-0.60
2018-02-04T05:50:33.145Z,-0.60
2018-02-04T05:53:01.467Z,-0.60
2018-02-04T05:55:29.810Z,-0.60
2018-02-04T05:57:58.141Z,-0.60
2018-02-04T06:00:26.481Z,-0.60
2018-02-04T06:02:54.824Z,-0.70
2018-02-04T06:05:23.140Z,-0.60
2018-02-04T06:07:52.239Z,-0.50
2018-02-04T06:10:20.562Z,-0.50
2018-02-04T06:12:48.901Z,-0.40
2018-02-04T06:15:17.211Z,-0.40
2018-02-04T06:17:45.549Z,-0.40
2018-02-04T06:20:14.629Z,-0.30
2018-02-04T06:22:42.969Z,-0.30
2018-02-04T06:25:11.280Z,-0.30
2018-02-04T06:27:39.624Z,-0.30
2018-02-04T06:30:07.949Z,-0.30
2018-02-04T06:32:37.068Z,-0.40
2018-02-04T06:35:05.375Z,-0.40
2018-02-04T06:37:33.707Z,-0.30
2018-02-04T06:40:02.797Z,-0.30
2018-02-04T06:42:31.918Z,-0.40
2018-02-04T06:45:00.234Z,-0.40
2018-02-04T06:47:28.544Z,-0.40
2018-02-04T06:49:56.884Z,-0.50
2018-02-04T06:52:25.202Z,-0.40
2018-02-04T06:54:53.528Z,-0.40
2018-02-04T06:57:21.837Z,-0.30
2018-02-04T06:59:50.185Z,-0.20
2018-02-04T07:02:18.507Z,-0.10
2018-02-04T07:04:46.900Z,-0.10
2018-02-04T07:07:15.994Z,-0.10
2018-02-04T07:09:44.328Z,-0.10
2018-02-04T07:12:12.660Z,-0.10
2018-02-04T07:14:41.776Z,0.00
2018-02-04T07:17:10.093Z,0.00
2018-02-04T07:19:38.419Z,0.00
2018-02-04T07:22:07.489Z,0.10
2018-02-04T07:24:35.824Z,0.10
2018-02-04T07:27:04.134Z,0.10
2018-02-04T07:29:32.475Z,0.10
2018-02-04T07:32:00.793Z,0.10
2018-02-04T07:34:29.128Z,0.10
2018-02-04T07:36:57.444Z,0.10
2018-02-04T07:39:25.754Z,0.10
2018-02-04T07:41:54.845Z,0.10
2018-02-04T07:44:23.149Z,0.10
2018-02-04T07:46:51.500Z,0.20
2018-02-04T07:49:19.805Z,0.20
2018-02-04T07:51:48.149Z,0.30
2018-02-04T07:54:16.466Z,0.20
2018-02-04T07:56:44.803Z,0.40
2018-02-04T07:59:13.110Z,0.40
2018-02-04T08:01:42.204Z,0.50
2018-02-04T08:04:11.282Z,0.50
2018-02-04T08:06:39.615Z,0.50
2018-02-04T08:09:07.928Z,0.70
2018-02-04T08:11:36.268Z,0.60
2018-02-04T08:14:05.605Z,0.70
2018-02-04T08:16:33.940Z,0.70
2018-02-04T08:19:03.024Z,0.70
2018-02-04T08:21:31.376Z,0.60
2018-02-04T08:23:59.684Z,0.70
2018-02-04T08:26:28.036Z,0.70
2018-02-04T08:28:56.368Z,0.80
2018-02-04T08:31:24.687Z,0.80
2018-02-04T08:33:53.016Z,0.80
2018-02-04T08:36:21.342Z,0.90
2018-02-04T08:38:49.680Z,0.80
2018-02-04T08:41:18.007Z,0.70
2018-02-04T08:43:46.332Z,0.80
2018-02-04T08:46:14.644Z,0.80
2018-02-04T08:48:42.993Z,0.80
2018-02-04T08:51:11.297Z,0.90
2018-02-04T08:53:39.636Z,0.90
2018-02-04T08:56:07.942Z,1.00
2018-02-04T08:58:36.273Z,1.00
2018-02-04T09:01:04.581Z,1.10
2018-02-04T09:03:32.933Z,1.10
2018-02-04T09:06:01.245Z,1.10
2018-02-04T09:08:29.552Z,1.10
2018-02-04T09:10:57.917Z,1.20
2018-02-04T09:13:26.228Z,1.20
2018-02-04T09:15:55.332Z,1.40
2018-02-04T09:18:24.407Z,1.40
2018-02-04T09:20:52.747Z,1.40
2018-02-04T09:23:21.066Z,1.40
2018-02-04T09:25:49.400Z,1.30
2018-02-04T09:28:17.707Z,1.40
2018-02-04T09:30:46.046Z,1.30
2018-02-04T09:33:14.372Z,1.40
2018-02-04T09:35:42.721Z,1.40
2018-02-04T09:38:11.025Z,1.40
2018-02-04T09:40:39.373Z,1.50
2018-02-04T09:43:07.685Z,1.50
2018-02-04T09:45:36.028Z,1.60
2018-02-04T09:48:04.337Z,1.60
2018-02-04T09:50:32.688Z,1.70
2018-02-04T09:53:01.017Z,1.80
2018-02-04T09:55:29.328Z,1.70
2018-02-04T09:57:57.669Z,1.60
2018-02-04T10:00:25.988Z,1.70
2018-02-04T10:02:54.335Z,1.80
2018-02-04T10:05:23.410Z,1.70
2018-02-04T10:07:51.801Z,1.70
2018-02-04T10:10:20.128Z,1.70
2018-02-04T10:12:48.468Z,1.60
2018-02-04T10:15:17.548Z,1.50
2018-02-04T10:17:45.883Z,1.50
2018-02-04T10:20:14.204Z,1.50
2018-02-04T10:22:42.535Z,1.40
2018-02-04T10:25:11.623Z,1.60
2018-02-04T10:27:39.948Z,1.60
2018-02-04T10:30:08.284Z,1.50
2018-02-04T10:32:36.619Z,1.50
2018-02-04T10:35:04.934Z,1.30
2018-02-04T10:37:33.288Z,1.30
2018-02-04T10:40:01.594Z,1.30
2018-02-04T10:42:29.936Z,1.30
2018-02-04T10:44:58.243Z,1.40
2018-02-04T10:47:26.636Z,1.30
2018-02-04T10:49:54.978Z,1.30
2018-02-04T10:52:24.101Z,1.50
2018-02-04T10:54:52.405Z,1.50
2018-02-04T10:59:54.364Z,1.50
2018-02-04T11:02:22.681Z,1.50
2018-02-04T11:04:51.023Z,1.50
2018-02-04T11:07:19.344Z,1.40
2018-02-04T11:09:47.676Z,1.40
2018-02-04T11:12:15.985Z,1.60
2018-02-04T11:14:44.420Z,1.70
2018-02-04T11:17:12.764Z,1.70
2018-02-04T11:19:41.115Z,1.80
2018-02-04T11:22:10.214Z,1.50
2018-02-04T11:24:38.585Z,1.50
2018-02-04T11:27:07.685Z,1.90
2018-02-04T11:29:36.045Z,1.90
2018-02-04T11:32:04.415Z,2.00
2018-02-04T11:34:32.795Z,1.60
2018-02-04T11:37:02.144Z,1.60
2018-02-04T11:39:30.536Z,1.60
2018-02-04T11:41:58.909Z,1.40
2018-02-04T11:44:27.312Z,1.40
2018-02-04T11:46:55.730Z,1.40
2018-02-04T11:49:24.137Z,1.40
2018-02-04T11:51:52.570Z,1.50
2018-02-04T11:54:20.970Z,1.50
2018-02-04T11:56:49.452Z,1.40
2018-02-04T11:59:17.787Z,1.70
2018-02-04T12:01:46.145Z,1.80
2018-02-04T12:04:14.504Z,1.70
2018-02-04T12:06:42.880Z,1.90
2018-02-04T12:09:11.237Z,2.00
2018-02-04T12:11:39.618Z,2.10
2018-02-04T12:14:07.981Z,2.30
2018-02-04T12:16:36.412Z,2.00
2018-02-04T12:19:04.807Z,2.20
2018-02-04T12:21:33.301Z,2.20
2018-02-04T12:24:01.725Z,2.10
2018-02-04T12:26:30.130Z,2.20
2018-02-04T12:28:59.414Z,2.20
2018-02-04T12:31:28.595Z,1.90
2018-02-04T12:33:57.905Z,1.90
2018-02-04T12:36:26.229Z,1.80
2018-02-04T12:38:54.608Z,1.70
2018-02-04T12:41:22.997Z,1.70
2018-02-04T12:43:52.360Z,1.70
2018-02-04T12:46:20.746Z,1.80
2018-02-04T12:48:49.145Z,1.80
2018-02-04T12:51:17.523Z,1.90
2018-02-04T12:53:45.890Z,1.90
2018-02-04T12:56:14.311Z,1.80
2018-02-04T12:58:42.657Z,1.80
2018-02-04T13:01:11.029Z,1.90
2018-02-04T13:03:39.378Z,2.00
2018-02-04T13:06:08.657Z,2.10
2018-02-04T13:08:37.006Z,2.10
2018-02-04T13:11:05.345Z,1.90
2018-02-04T13:13:33.711Z,1.90
2018-02-04T13:16:02.059Z,2.00
2018-02-04T13:18:30.417Z,1.80
2018-02-04T13:20:58.766Z,1.90
2018-02-04T13:23:27.112Z,1.90
2018-02-04T13:25:55.452Z,2.00
2018-02-04T13:28:23.915Z,1.80
2018-02-04T13:30:52.396Z,1.90
2018-02-04T13:33:20.727Z,1.90
2018-02-04T13:35:49.071Z,1.90
2018-02-04T13:38:17.419Z,1.80
2018-02-04T13:40:45.938Z,1.80
2018-02-04T13:43:14.310Z,1.80
2018-02-04T13:45:42.669Z,1.60
2018-02-04T13:48:10.977Z,1.70
2018-02-04T13:50:39.323Z,1.70
2018-02-04T13:53:07.641Z,1.70
2018-02-04T13:55:36.011Z,1.80
2018-02-04T13:58:04.320Z,1.80
2018-02-04T14:00:32.656Z,1.70
2018-02-04T14:03:00.986Z,1.60
2018-02-04T14:05:29.333Z,1.60
2018-02-04T14:07:57.670Z,1.50
2018-02-04T14:10:25.996Z,1.50
2018-02-04T14:12:54.338Z,1.50
2018-02-04T14:15:22.683Z,1.50
2018-02-04T14:17:51.798Z,1.60
2018-02-04T14:20:20.130Z,1.60
2018-02-04T14:22:49.258Z,1.50
2018-02-04T14:25:18.342Z,1.50
2018-02-04T14:27:46.693Z,1.50
2018-02-04T14:30:15.029Z,1.50
2018-02-04T14:32:43.419Z,1.40
2018-02-04T14:35:11.702Z,1.50
2018-02-04T14:37:43.673Z,1.40
2018-02-04T14:40:11.991Z,1.50
2018-02-04T14:42:40.341Z,1.40
2018-02-04T14:45:08.654Z,1.30
2018-02-04T14:47:37.005Z,1.30
2018-02-04T14:50:05.332Z,1.30
2018-02-04T14:52:34.432Z,1.20
2018-02-04T14:55:02.754Z,1.20
2018-02-04T14:57:31.094Z,1.20
2018-02-04T15:00:00.168Z,1.20
2018-02-04T15:02:32.334Z,1.10
2018-02-04T15:05:01.719Z,1.10
2018-02-04T15:07:30.361Z,1.00
2018-02-04T15:09:58.682Z,1.10
2018-02-04T15:12:27.597Z,0.90
2018-02-04T15:14:56.715Z,1.00
2018-02-04T15:17:25.051Z,1.00
2018-02-04T15:19:53.395Z,0.90
2018-02-04T15:22:21.710Z,0.90
2018-02-04T15:24:50.040Z,0.90
2018-02-04T15:27:18.363Z,1.00
2018-02-04T15:29:46.704Z,0.70
2018-02-04T15:32:15.068Z,0.70
2018-02-04T15:34:45.086Z,0.70
2018-02-04T15:37:13.416Z,0.70
2018-02-04T15:39:41.754Z,0.80
2018-02-04T15:42:10.071Z,0.80
2018-02-04T15:44:38.422Z,0.70
2018-02-04T15:47:06.733Z,0.70
2018-02-04T15:49:35.077Z,0.80
2018-02-04T15:52:03.399Z,0.90
2018-02-04T15:54:34.681Z,1.00
2018-02-04T15:57:03.007Z,1.00
2018-02-04T15:59:31.378Z,1.00
2018-02-04T16:01:59.700Z,0.90
2018-02-04T16:04:28.857Z,0.90
2018-02-04T16:06:57.205Z,0.90
2018-02-04T16:09:25.550Z,0.90
2018-02-04T16:11:53.885Z,0.80
2018-02-04T16:14:22.574Z,0.80
2018-02-04T16:16:50.914Z,0.80
2018-02-04T16:19:19.999Z,0.80
2018-02-04T16:21:49.096Z,0.80
2018-02-04T16:24:18.178Z,0.90
2018-02-04T16:26:46.541Z,0.90
2018-02-04T16:29:16.988Z,0.80
2018-02-04T16:31:45.325Z,0.70
2018-02-04T16:34:13.648Z,0.70
2018-02-04T16:36:41.992Z,0.60
2018-02-04T16:39:10.317Z,0.70
2018-02-04T16:41:39.433Z,0.60
2018-02-04T16:44:08.597Z,0.70
2018-02-04T16:46:36.947Z,0.70
2018-02-04T16:49:05.260Z,0.70
2018-02-04T16:51:34.368Z,0.70
2018-02-04T16:54:03.453Z,0.70
2018-02-04T16:56:32.602Z,0.60
2018-02-04T16:59:00.911Z,0.60
2018-02-04T17:01:29.306Z,0.70
2018-02-04T17:03:57.629Z,0.60
2018-02-04T17:06:26.008Z,0.40
2018-02-04T17:08:54.325Z,0.30
2018-02-04T17:11:22.661Z,0.30
2018-02-04T17:13:50.980Z,0.30
2018-02-04T17:16:20.816Z,0.20
2018-02-04T17:18:49.890Z,0.10
2018-02-04T17:21:18.266Z,0.10
2018-02-04T17:23:46.576Z,0.10
2018-02-04T17:26:15.668Z,0.20
2018-02-04T17:28:44.754Z,0.20
2018-02-04T17:31:14.296Z,0.20
2018-02-04T17:33:42.637Z,0.10
2018-02-04T17:36:10.949Z,0.10
2018-02-04T17:38:39.295Z,0.20
2018-02-04T17:41:07.613Z,0.20
2018-02-04T17:43:35.947Z,0.10
2018-02-04T17:46:05.041Z,0.10
2018-02-04T17:48:33.429Z,0.10
2018-02-04T17:51:01.737Z,0.10
2018-02-04T17:53:32.067Z,0.10
2018-02-04T17:56:00.400Z,0.20
2018-02-04T17:58:28.741Z,0.20
2018-02-04T18:00:57.124Z,0.10
2018-02-04T18:03:25.471Z,0.20
2018-02-04T18:05:53.785Z,0.20
2018-02-04T18:08:22.126Z,0.10
2018-02-04T18:10:51.251Z,0.10
2018-02-04T18:13:19.605Z,0.10
2018-02-04T18:15:48.683Z,-0.10
2018-02-04T18:18:17.789Z,0.00
2018-02-04T18:20:46.879Z,-0.10
2018-02-04T18:23:15.996Z,-0.10
2018-02-04T18:25:44.325Z,-0.10
2018-02-04T18:28:12.746Z,0.00
2018-02-04T18:30:41.821Z,0.00
2018-02-04T18:33:10.144Z,0.00
2018-02-04T18:35:44.172Z,0.00
2018-02-04T18:38:12.496Z,0.10
2018-02-04T18:40:41.608Z,0.00
2018-02-04T18:43:10.689Z,0.00
2018-02-04T18:45:39.813Z,0.00
2018-02-04T18:48:08.156Z,0.00
2018-02-04T18:50:36.485Z,-0.10
2018-02-04T18:53:04.843Z,0.00
2018-02-04T18:55:33.181Z,0.00
2018-02-04T18:58:01.546Z,-0.10
2018-02-04T19:00:29.944Z,-0.20
2018-02-04T19:02:58.266Z,-0.20
2018-02-04T19:05:26.657Z,-0.20
2018-02-04T19:07:54.968Z,-0.20
2018-02-04T19:10:23.344Z,-0.10
2018-02-04T19:12:51.726Z,-0.10
2018-02-04T19:15:20.916Z,-0.10
2018-02-04T19:17:49.244Z,-0.20
2018-02-04T19:20:18.375Z,-0.10
2018-02-04T19:22:46.712Z,-0.10
2018-02-04T19:25:15.819Z,0.00
2018-02-04T19:27:44.920Z,0.00
2018-02-04T19:30:14.051Z,0.00
2018-02-04T19:32:42.395Z,0.00
2018-02-04T19:35:10.737Z,0.00
2018-02-04T19:37:39.090Z,-0.10
2018-02-04T19:40:07.408Z,0.00
2018-02-04T19:42:35.746Z,-0.20
2018-02-04T19:45:04.116Z,-0.20
2018-02-04T19:47:32.464Z,-0.10
2018-02-04T19:50:00.802Z,-0.10
2018-02-04T19:52:29.140Z,0.00
2018-02-04T19:54:57.460Z,0.00
2018-02-04T19:57:26.722Z,0.00
2018-02-04T19:59:55.032Z,0.00
2018-02-04T20:02:23.368Z,0.00
2018-02-04T20:04:51.727Z,0.00
2018-02-04T20:07:20.870Z,0.00
2018-02-04T20:09:49.218Z,-0.10
2018-02-04T20:12:18.364Z,0.00
2018-02-04T20:14:46.711Z,0.00
2018-02-04T20:17:15.076Z,-0.10
2018-02-04T20:19:44.185Z,0.00
2018-02-04T20:22:15.696Z,0.00
2018-02-04T20:24:44.082Z,0.10
2018-02-04T20:27:12.424Z,0.10
2018-02-04T20:29:40.811Z,0.10
2018-02-04T20:32:20.939Z,0.10
2018-02-04T20:34:52.182Z,0.00
2018-02-04T20:37:20.496Z,0.00
2018-02-04T20:39:48.840Z,0.00
2018-02-04T20:42:17.157Z,0.10
2018-02-04T20:44:45.558Z,0.00
2018-02-04T20:47:13.878Z,-0.10
2018-02-04T20:49:42.232Z,-0.10
2018-02-04T20:52:11.326Z,-0.20
2018-02-04T20:54:40.484Z,-0.20
2018-02-04T20:57:08.819Z,-0.20
2018-02-04T20:59:37.236Z,-0.20
2018-02-04T21:02:05.549Z,-0.20
2018-02-04T21:04:34.654Z,-0.30
2018-02-04T21:07:03.745Z,-0.30
2018-02-04T21:09:32.908Z,-0.30
2018-02-04T21:12:01.276Z,-0.30
2018-02-04T21:14:29.626Z,-0.40
2018-02-04T21:16:57.975Z,-0.40
2018-02-04T21:19:26.316Z,-0.40
2018-02-04T21:21:54.665Z,-0.40
2018-02-04T21:24:23.016Z,-0.40
2018-02-04T21:26:52.156Z,-0.40
2018-02-04T21:29:20.485Z,-0.50
2018-02-04T21:31:48.860Z,-0.50
2018-02-04T21:34:17.978Z,-0.50
2018-02-04T21:36:46.306Z,-0.50
2018-02-04T21:39:14.654Z,-0.50
2018-02-04T21:41:42.974Z,-0.50
2018-02-04T21:44:11.316Z,-0.50
2018-02-04T21:46:39.684Z,-0.50
2018-02-04T21:49:08.071Z,-0.50
2018-02-04T21:51:36.434Z,-0.50
2018-02-04T21:54:05.542Z,-0.60
2018-02-04T21:56:33.917Z,-0.60
2018-02-04T21:59:03.022Z,-0.50
2018-02-04T22:01:31.346Z,-0.60
2018-02-04T22:03:59.686Z,-0.60
2018-02-04T22:06:28.010Z,-0.60
2018-02-04T22:08:57.218Z,-0.60
2018-02-04T22:11:25.532Z,-0.70
2018-02-04T22:13:54.824Z,-0.60
2018-02-04T22:16:23.904Z,-0.60
2018-02-04T22:18:53.742Z,-0.60
2018-02-04T22:21:22.069Z,-0.60
2018-02-04T22:23:50.394Z,-0.60
2018-02-04T22:26:18.740Z,-0.60
2018-02-04T22:28:47.065Z,-0.60
2018-02-04T22:31:15.417Z,-0.60
2018-02-04T22:33:43.744Z,-0.60
2018-02-04T22:36:12.095Z,-0.50
2018-02-04T22:38:40.429Z,-0.60
2018-02-04T22:41:08.776Z,-0.70
2018-02-04T22:43:37.097Z,-0.70
2018-02-04T22:46:05.453Z,-0.70
2018-02-04T22:48:33.793Z,-0.80
2018-02-04T22:51:02.146Z,-0.70
2018-02-04T22:53:31.232Z,-0.70
2018-02-04T22:55:59.572Z,-0.70
2018-02-04T22:58:27.921Z,-0.70
2018-02-04T23:00:56.266Z,-0.70
2018-02-04T23:03:24.587Z,-0.70
2018-02-04T23:05:52.928Z,-0.70
2018-02-04T23:08:21.243Z,-0.80
2018-02-04T23:10:49.579Z,-0.80
2018-02-04T23:13:17.895Z,-0.70
2018-02-04T23:15:46.306Z,-0.70
2018-02-04T23:18:14.611Z,-0.70
2018-02-04T23:20:42.940Z,-0.80
2018-02-04T23:23:11.272Z,-0.80
2018-02-04T23:25:39.584Z,-0.70
2018-02-04T23:28:07.920Z,-0.70
2018-02-04T23:30:36.233Z,-0.60
2018-02-04T23:33:04.572Z,-0.60
2018-02-04T23:35:32.885Z,-0.60
2018-02-04T23:38:01.988Z,-0.60
2018-02-04T23:40:30.303Z,-0.60
2018-02-04T23:42:58.640Z,-0.70
2018-02-04T23:45:27.733Z,-0.70
2018-02-04T23:47:56.853Z,-0.70
2018-02-04T23:50:25.202Z,-0.70
2018-02-04T23:52:54.148Z,-0.80
2018-02-04T23:55:22.473Z,-0.70
2018-02-04T23:57:51.576Z,-0.70
